createdAt,value
2022-11-19T00:00:50.102Z,24.58
2022-11-19T00:03:53.261Z,15.80
2022-11-19T00:09:56.119Z,14.65
2022-11-19T00:12:57.471Z,14.70
2022-11-19T00:16:07.200Z,13.05
2022-11-19T00:19:10.231Z,12.85
2022-11-19T00:22:11.651Z,10.13
2022-11-19T00:25:13.008Z,14.00
2022-11-19T00:28:14.376Z,10.07
2022-11-19T00:31:16.675Z,10.82
2022-11-19T00:34:18.871Z,9.73
2022-11-19T00:37:20.380Z,9.88
2022-11-19T00:40:21.712Z,10.23
2022-11-19T00:43:23.455Z,11.98
2022-11-19T00:46:30.229Z,8.93
2022-11-19T00:49:31.653Z,14.43
2022-11-19T00:52:33.001Z,17.17
2022-11-19T00:55:34.325Z,16.10
2022-11-19T00:58:36.379Z,18.85
2022-11-19T01:01:37.932Z,14.55
2022-11-19T01:04:39.353Z,16.65
2022-11-19T01:07:40.671Z,22.45
2022-11-19T01:10:42.044Z,10.57
2022-11-19T01:13:43.597Z,10.95
2022-11-19T01:16:44.915Z,10.48
2022-11-19T01:19:46.260Z,8.95
2022-11-19T01:22:47.597Z,12.55
2022-11-19T01:25:48.980Z,9.55
2022-11-19T01:28:50.436Z,10.70
2022-11-19T01:31:51.814Z,14.27
2022-11-19T01:34:53.153Z,10.60
2022-11-19T01:37:54.499Z,10.52
2022-11-19T01:40:57.301Z,10.75
2022-11-19T01:44:04.256Z,10.07
2022-11-19T01:47:05.604Z,10.70
2022-11-19T01:50:07.241Z,10.65
2022-11-19T01:53:09.234Z,10.18
2022-11-19T01:56:10.837Z,9.25
2022-11-19T01:59:17.398Z,14.50
2022-11-19T02:02:19.782Z,8.70
2022-11-19T02:05:22.015Z,11.00
2022-11-19T02:08:37.263Z,10.85
2022-11-19T02:12:02.831Z,9.27
2022-11-19T02:15:21.162Z,10.85
2022-11-19T02:18:44.776Z,12.52
2022-11-19T02:22:37.980Z,11.80
2022-11-19T02:26:11.692Z,10.70
2022-11-19T02:29:31.577Z,9.15
2022-11-19T02:32:48.794Z,11.52
2022-11-19T02:35:58.475Z,10.50
2022-11-19T02:39:20.723Z,11.88
2022-11-19T02:42:25.896Z,11.73
2022-11-19T02:45:37.459Z,12.00
2022-11-19T02:48:43.768Z,12.48
2022-11-19T02:51:45.621Z,12.52
2022-11-19T02:54:47.007Z,11.48
2022-11-19T02:57:55.249Z,12.20
2022-11-19T03:00:57.424Z,10.77
2022-11-19T03:03:59.808Z,12.52
2022-11-19T03:07:09.626Z,10.63
2022-11-19T03:10:12.057Z,11.00
2022-11-19T03:13:23.825Z,11.32
2022-11-19T03:16:32.968Z,10.73
2022-11-19T03:19:44.248Z,9.95
2022-11-19T03:22:58.082Z,10.63
2022-11-19T03:26:06.834Z,10.77
2022-11-19T03:29:11.545Z,11.02
2022-11-19T03:32:26.141Z,11.05
2022-11-19T03:35:35.815Z,15.90
2022-11-19T03:38:43.002Z,11.93
2022-11-19T03:41:48.430Z,11.85
2022-11-19T03:44:55.304Z,9.98
2022-11-19T03:47:57.771Z,11.27
2022-11-19T03:51:25.662Z,11.73
2022-11-19T03:54:28.471Z,10.32
2022-11-19T03:57:29.827Z,9.68
2022-11-19T04:00:31.527Z,10.52
2022-11-19T04:03:32.903Z,10.82
2022-11-19T04:06:34.256Z,10.27
2022-11-19T04:09:35.610Z,9.68
2022-11-19T04:12:36.966Z,9.75
2022-11-19T04:15:38.319Z,10.38
2022-11-19T04:18:39.694Z,10.90
2022-11-19T04:21:41.181Z,8.98
2022-11-19T04:24:42.562Z,10.85
2022-11-19T04:27:47.099Z,9.23
2022-11-19T04:30:48.446Z,10.27
2022-11-19T04:33:49.827Z,8.90
2022-11-19T04:36:51.227Z,9.27
2022-11-19T04:39:52.544Z,7.85
2022-11-19T04:42:53.876Z,9.27
2022-11-19T04:45:55.204Z,8.93
2022-11-19T04:48:56.832Z,9.75
2022-11-19T04:51:58.143Z,9.82
2022-11-19T04:54:59.488Z,11.55
2022-11-19T04:58:00.808Z,9.05
2022-11-19T05:01:04.448Z,9.52
2022-11-19T05:04:05.785Z,8.45
2022-11-19T05:07:07.220Z,9.18
2022-11-19T05:10:09.142Z,12.05
2022-11-19T05:13:10.714Z,10.15
2022-11-19T05:16:12.037Z,9.30
2022-11-19T05:19:13.349Z,11.90
2022-11-19T05:22:14.688Z,11.15
2022-11-19T05:25:16.055Z,10.50
2022-11-19T05:28:17.400Z,12.02
2022-11-19T05:31:18.722Z,12.15
2022-11-19T05:34:20.214Z,10.23
2022-11-19T05:37:21.534Z,12.32
2022-11-19T05:40:22.925Z,11.55
2022-11-19T05:43:24.481Z,12.85
2022-11-19T05:46:25.881Z,9.77
2022-11-19T05:49:27.197Z,11.88
2022-11-19T05:52:28.566Z,10.85
2022-11-19T05:55:29.905Z,12.65
2022-11-19T05:58:31.218Z,15.95
2022-11-19T06:01:32.581Z,14.07
2022-11-19T06:04:34.022Z,12.57
2022-11-19T06:07:35.432Z,25.95
2022-11-19T06:10:36.782Z,13.25
2022-11-19T06:13:38.128Z,13.55
2022-11-19T06:16:39.666Z,16.75
2022-11-19T06:19:40.992Z,11.75
2022-11-19T06:22:42.325Z,21.05
2022-11-19T06:25:43.656Z,19.85
2022-11-19T06:28:44.988Z,26.58
2022-11-19T06:31:46.337Z,15.70
2022-11-19T06:34:47.665Z,24.00
2022-11-19T06:37:48.987Z,14.77
2022-11-19T06:40:50.337Z,12.07
2022-11-19T06:43:51.659Z,13.82
2022-11-19T06:46:53.027Z,11.13
2022-11-19T06:49:54.343Z,9.98
2022-11-19T06:52:55.751Z,9.13
2022-11-19T06:56:02.279Z,11.18
2022-11-19T06:59:03.615Z,11.50
2022-11-19T07:02:05.426Z,11.90
2022-11-19T07:05:07.479Z,13.55
2022-11-19T07:08:08.867Z,13.98
2022-11-19T07:11:10.231Z,13.15
2022-11-19T07:14:11.743Z,12.93
2022-11-19T07:17:13.235Z,10.35
2022-11-19T07:20:14.716Z,11.10
2022-11-19T07:23:16.061Z,12.43
2022-11-19T07:26:17.427Z,12.32
2022-11-19T07:29:18.949Z,11.65
2022-11-19T07:32:20.489Z,9.10
2022-11-19T07:35:21.931Z,10.75
2022-11-19T07:38:23.281Z,10.73
2022-11-19T07:41:24.808Z,11.60
2022-11-19T07:44:26.255Z,12.52
2022-11-19T07:47:27.637Z,12.75
2022-11-19T07:50:28.979Z,11.43
2022-11-19T07:53:30.331Z,12.40
2022-11-19T07:56:31.707Z,12.18
2022-11-19T07:59:33.160Z,16.95
2022-11-19T08:02:36.056Z,18.00
2022-11-19T08:05:39.176Z,15.25
2022-11-19T08:08:40.656Z,13.68
2022-11-19T08:11:42.012Z,23.92
2022-11-19T08:14:43.340Z,26.92
2022-11-19T08:17:44.690Z,34.30
2022-11-19T08:20:46.013Z,40.40
2022-11-19T08:23:47.362Z,31.58
2022-11-19T08:26:49.531Z,19.75
2022-11-19T08:29:50.877Z,20.67
2022-11-19T08:32:52.305Z,20.80
2022-11-19T08:35:56.822Z,23.13
2022-11-19T08:38:59.025Z,27.55
2022-11-19T08:42:00.373Z,20.73
2022-11-19T08:45:01.779Z,19.23
2022-11-19T08:48:06.710Z,33.95
2022-11-19T08:51:08.474Z,35.47
2022-11-19T08:54:09.843Z,40.88
2022-11-19T08:57:11.166Z,28.13
2022-11-19T09:00:13.310Z,21.33
2022-11-19T09:03:14.638Z,21.90
2022-11-19T09:06:16.155Z,14.70
2022-11-19T09:09:17.602Z,17.05
2022-11-19T09:12:18.958Z,13.45
2022-11-19T09:15:20.902Z,13.70
2022-11-19T09:18:22.220Z,17.38
2022-11-19T09:21:23.563Z,13.75
2022-11-19T09:24:24.978Z,11.70
2022-11-19T09:27:26.320Z,11.25
2022-11-19T09:30:27.656Z,10.10
2022-11-19T09:33:30.409Z,13.38
2022-11-19T09:36:31.771Z,17.33
2022-11-19T09:39:33.248Z,15.57
2022-11-19T09:42:54.247Z,18.50
2022-11-19T09:46:10.295Z,14.77
2022-11-19T09:49:24.988Z,11.18
2022-11-19T09:52:30.969Z,7.75
2022-11-19T09:55:35.706Z,5.28
2022-11-19T09:58:43.009Z,7.07
2022-11-19T10:01:44.383Z,5.47
2022-11-19T10:04:47.632Z,4.95
2022-11-19T10:08:07.225Z,7.05
2022-11-19T10:11:35.938Z,4.47
2022-11-19T10:14:56.229Z,5.85
2022-11-19T10:18:09.426Z,5.88
2022-11-19T10:21:37.266Z,5.43
2022-11-19T10:25:16.228Z,4.50
2022-11-19T10:28:20.432Z,6.93
2022-11-19T10:31:38.816Z,6.70
2022-11-19T10:34:40.511Z,7.10
2022-11-19T10:37:55.996Z,5.40
2022-11-19T10:41:01.672Z,4.25
2022-11-19T10:44:40.878Z,4.13
2022-11-19T10:47:56.570Z,4.47
2022-11-19T10:50:59.521Z,5.90
2022-11-19T10:54:07.083Z,5.32
2022-11-19T10:57:18.938Z,5.40
2022-11-19T11:00:20.374Z,4.15
2022-11-19T11:03:45.701Z,5.03
2022-11-19T11:07:00.416Z,5.25
2022-11-19T11:10:41.136Z,3.85
2022-11-19T11:13:42.788Z,3.67
2022-11-19T11:16:47.106Z,5.40
2022-11-19T11:20:05.130Z,4.97
2022-11-19T11:23:13.471Z,3.35
2022-11-19T11:26:19.549Z,3.08
2022-11-19T11:29:26.601Z,2.95
2022-11-19T11:32:31.755Z,2.40
2022-11-19T11:35:36.439Z,2.85
2022-11-19T11:38:47.219Z,5.57
2022-11-19T11:42:07.033Z,3.55
2022-11-19T11:45:22.135Z,2.83
2022-11-19T11:48:23.759Z,3.17
2022-11-19T11:51:33.678Z,3.15
2022-11-19T11:54:36.106Z,2.47
2022-11-19T11:57:55.958Z,2.63
2022-11-19T12:01:16.001Z,3.92
2022-11-19T12:04:17.585Z,2.35
2022-11-19T12:07:27.813Z,2.47
2022-11-19T12:10:50.958Z,1.75
2022-11-19T12:14:09.553Z,3.07
2022-11-19T12:17:33.891Z,4.65
2022-11-19T12:20:42.783Z,3.23
2022-11-19T12:23:55.603Z,2.92
2022-11-19T12:27:21.767Z,2.73
2022-11-19T12:30:29.479Z,1.85
2022-11-19T12:33:52.023Z,1.65
2022-11-19T12:37:19.231Z,2.58
2022-11-19T12:40:47.705Z,2.13
2022-11-19T12:43:51.999Z,3.17
2022-11-19T12:47:02.576Z,6.20
2022-11-19T12:50:26.373Z,3.38
2022-11-19T12:56:46.048Z,2.78
2022-11-19T13:00:00.834Z,2.80
2022-11-19T13:03:43.862Z,3.40
2022-11-19T13:06:55.554Z,2.78
2022-11-19T13:10:05.523Z,3.58
2022-11-19T13:13:09.582Z,4.72
2022-11-19T13:16:15.114Z,3.08
2022-11-19T13:19:23.488Z,4.22
2022-11-19T13:22:31.673Z,6.65
2022-11-19T13:25:44.392Z,3.97
2022-11-19T13:28:53.136Z,4.10
2022-11-19T13:32:17.874Z,5.85
2022-11-19T13:35:56.882Z,3.15
2022-11-19T13:39:10.589Z,2.55
2022-11-19T13:42:16.285Z,2.65
2022-11-19T13:45:17.945Z,3.05
2022-11-19T13:48:30.801Z,2.30
2022-11-19T13:51:38.246Z,2.77
2022-11-19T13:54:41.092Z,3.67
2022-11-19T13:57:44.726Z,3.13
2022-11-19T14:01:08.970Z,2.80
2022-11-19T14:04:37.193Z,3.90
2022-11-19T14:08:02.822Z,4.05
2022-11-19T14:11:19.506Z,6.28
2022-11-19T14:14:26.886Z,5.35
2022-11-19T14:17:43.754Z,5.47
2022-11-19T14:20:45.838Z,3.90
2022-11-19T14:23:48.764Z,3.90
2022-11-19T14:26:52.799Z,2.70
2022-11-19T14:30:00.576Z,2.42
2022-11-19T14:33:01.947Z,2.53
2022-11-19T14:36:10.548Z,3.15
2022-11-19T14:39:27.496Z,3.05
2022-11-19T14:42:28.860Z,2.42
2022-11-19T14:45:30.219Z,4.57
2022-11-19T14:48:35.295Z,5.32
2022-11-19T14:51:39.466Z,6.95
2022-11-19T14:54:44.459Z,5.65
2022-11-19T14:57:59.208Z,5.35
2022-11-19T15:01:10.375Z,6.60
2022-11-19T15:04:13.331Z,4.10
2022-11-19T15:07:25.182Z,2.83
2022-11-19T15:10:31.280Z,3.75
2022-11-19T15:13:35.392Z,4.40
2022-11-19T15:16:36.812Z,4.43
2022-11-19T15:19:55.949Z,6.15
2022-11-19T15:23:05.884Z,3.60
2022-11-19T15:26:21.382Z,7.53
2022-11-19T15:30:05.397Z,5.63
2022-11-19T15:33:37.308Z,5.68
2022-11-19T15:36:45.397Z,5.53
2022-11-19T15:39:56.020Z,4.63
2022-11-19T15:43:03.668Z,5.07
2022-11-19T15:46:30.580Z,6.10
2022-11-19T15:49:34.057Z,3.97
2022-11-19T15:52:35.378Z,4.30
2022-11-19T15:55:36.918Z,3.67
2022-11-19T15:58:42.823Z,4.03
2022-11-19T16:01:44.572Z,5.28
2022-11-19T16:04:49.626Z,4.82
2022-11-19T16:07:52.658Z,11.45
2022-11-19T16:10:54.440Z,19.95
2022-11-19T16:13:55.807Z,84.43
2022-11-19T16:17:10.271Z,21.92
2022-11-19T16:20:11.601Z,22.65
2022-11-19T16:23:18.446Z,12.10
2022-11-19T16:26:20.035Z,11.10
2022-11-19T16:29:24.222Z,21.23
2022-11-19T16:32:27.419Z,23.40
2022-11-19T16:35:31.418Z,34.50
2022-11-19T16:38:32.987Z,12.23
2022-11-19T16:41:34.699Z,9.18
2022-11-19T16:44:36.473Z,7.30
2022-11-19T16:47:39.910Z,9.98
2022-11-19T16:53:48.131Z,9.45
2022-11-19T16:56:49.527Z,12.40
2022-11-19T16:59:54.240Z,10.85
2022-11-19T17:02:55.697Z,9.43
2022-11-19T17:05:58.704Z,8.98
2022-11-19T17:09:00.994Z,8.15
2022-11-19T17:12:02.621Z,11.07
2022-11-19T17:15:31.916Z,10.25
2022-11-19T17:18:33.413Z,13.52
2022-11-19T17:21:34.868Z,22.10
2022-11-19T17:24:43.071Z,22.48
2022-11-19T17:27:50.798Z,46.85
2022-11-19T17:30:52.260Z,51.35
2022-11-19T17:33:56.435Z,79.13
2022-11-19T17:36:58.663Z,58.75
2022-11-19T17:40:00.039Z,36.95
2022-11-19T17:43:01.614Z,26.80
2022-11-19T17:46:02.948Z,29.63
2022-11-19T17:49:04.409Z,27.35
2022-11-19T17:52:05.892Z,24.58
2022-11-19T17:55:17.570Z,27.35
2022-11-19T17:58:18.905Z,27.33
2022-11-19T18:01:21.001Z,23.27
2022-11-19T18:04:22.635Z,13.70
2022-11-19T18:07:24.247Z,12.90
2022-11-19T18:10:25.670Z,22.88
2022-11-19T18:13:27.459Z,24.42
2022-11-19T18:16:32.131Z,28.05
2022-11-19T18:19:33.455Z,20.45
2022-11-19T18:22:35.373Z,20.75
2022-11-19T18:25:36.731Z,19.30
2022-11-19T18:28:38.719Z,20.92
2022-11-19T18:31:50.363Z,57.78
2022-11-19T18:34:51.748Z,61.75
2022-11-19T18:37:54.057Z,35.63
2022-11-19T18:40:55.402Z,23.63
2022-11-19T18:43:56.830Z,18.25
2022-11-19T18:46:58.356Z,13.63
2022-11-19T18:49:59.739Z,25.98
2022-11-19T18:53:01.122Z,36.85
2022-11-19T18:56:02.727Z,45.58
2022-11-19T18:59:05.053Z,92.45
2022-11-19T19:02:06.678Z,48.07
2022-11-19T19:05:08.324Z,17.55
2022-11-19T19:08:09.714Z,31.73
2022-11-19T19:11:12.771Z,23.23
2022-11-19T19:14:14.187Z,12.63
2022-11-19T19:17:16.040Z,12.73
2022-11-19T19:20:17.452Z,12.05
2022-11-19T19:23:18.833Z,11.73
2022-11-19T19:26:20.264Z,10.27
2022-11-19T19:29:22.057Z,12.85
2022-11-19T19:32:23.741Z,14.07
2022-11-19T19:35:25.097Z,13.77
2022-11-19T19:38:26.584Z,27.33
2022-11-19T19:41:28.327Z,16.83
2022-11-19T19:44:29.704Z,19.08
2022-11-19T19:47:31.044Z,16.90
2022-11-19T19:50:32.424Z,15.05
2022-11-19T19:53:34.109Z,12.68
2022-11-19T19:56:35.637Z,12.30
2022-11-19T19:59:36.997Z,11.48
2022-11-19T20:02:38.360Z,12.65
2022-11-19T20:05:39.689Z,9.35
2022-11-19T20:08:42.052Z,11.88
2022-11-19T20:11:43.392Z,11.50
2022-11-19T20:14:45.394Z,13.77
2022-11-19T20:17:46.732Z,12.27
2022-11-19T20:20:48.141Z,16.27
2022-11-19T20:23:49.729Z,18.85
2022-11-19T20:26:51.225Z,14.48
2022-11-19T20:29:52.557Z,18.38
2022-11-19T20:32:53.938Z,20.90
2022-11-19T20:35:55.327Z,23.13
2022-11-19T20:38:56.915Z,13.95
2022-11-19T20:41:58.280Z,15.80
2022-11-19T20:44:59.617Z,77.03
2022-11-19T20:48:00.969Z,26.75
2022-11-19T20:51:02.601Z,21.35
2022-11-19T20:54:04.421Z,33.50
2022-11-19T20:57:05.791Z,23.98
2022-11-19T21:00:07.678Z,20.15
2022-11-19T21:03:09.043Z,21.77
2022-11-19T21:06:10.399Z,17.42
2022-11-19T21:09:11.795Z,9.77
2022-11-19T21:12:13.230Z,7.90
2022-11-19T21:15:14.688Z,9.73
2022-11-19T21:18:16.103Z,46.55
2022-11-19T21:21:19.406Z,19.05
2022-11-19T21:27:22.121Z,12.52
2022-11-19T21:30:23.447Z,18.08
2022-11-19T21:33:25.215Z,16.10
2022-11-19T21:36:26.571Z,15.85
2022-11-19T21:39:27.964Z,13.40
2022-11-19T21:42:29.308Z,23.30
2022-11-19T21:45:30.682Z,12.60
2022-11-19T21:48:32.044Z,13.75
2022-11-19T21:51:33.444Z,17.48
2022-11-19T21:54:34.825Z,22.13
2022-11-19T21:57:36.215Z,26.05
2022-11-19T22:00:38.388Z,16.85
2022-11-19T22:03:39.734Z,31.00
2022-11-19T22:06:41.201Z,12.77
2022-11-19T22:09:42.525Z,7.93
2022-11-19T22:12:44.273Z,18.02
2022-11-19T22:15:45.625Z,18.88
2022-11-19T22:18:47.112Z,15.30
2022-11-19T22:21:48.444Z,9.70
2022-11-19T22:24:49.886Z,27.33
2022-11-19T22:27:51.262Z,8.48
2022-11-19T22:30:53.725Z,14.65
2022-11-19T22:33:55.359Z,15.83
2022-11-19T22:36:56.803Z,11.27
2022-11-19T22:39:58.247Z,9.95
2022-11-19T22:42:59.594Z,12.27
2022-11-19T22:46:01.079Z,22.05
2022-11-19T22:49:02.542Z,15.50
2022-11-19T22:52:03.980Z,13.80
2022-11-19T22:55:05.819Z,9.13
2022-11-19T22:58:07.183Z,22.73
2022-11-19T23:01:15.823Z,19.52
2022-11-19T23:04:17.413Z,15.77
2022-11-19T23:07:18.809Z,9.48
2022-11-19T23:10:20.168Z,13.32
2022-11-19T23:13:21.512Z,18.17
2022-11-19T23:16:22.824Z,22.33
2022-11-19T23:19:24.337Z,21.23
2022-11-19T23:22:25.747Z,16.40
2022-11-19T23:25:27.108Z,16.13
2022-11-19T23:28:30.360Z,16.35
2022-11-19T23:31:37.484Z,17.40
2022-11-19T23:34:38.804Z,9.20
2022-11-19T23:37:40.128Z,13.20
2022-11-19T23:40:41.481Z,13.93
2022-11-19T23:43:43.712Z,13.43
2022-11-19T23:46:45.028Z,10.45
2022-11-19T23:49:46.396Z,19.88
2022-11-19T23:52:47.713Z,19.13
2022-11-19T23:55:49.056Z,11.80
2022-11-19T23:58:50.896Z,11.38
